Time;durP1;ratioP1;P1;durP2;ratioP2;P2;SDS_P1;SDS_P2;PMS_P1;PMS_P2;Temp;Humidity;BMP_temperature;BMP_pressure;BME280_temperature;BME280_humidity;BME280_pressure;Samples;Min_cycle;Max_cycle;Signal;HPM_P1;HPM_P2
2023/03/26 00:04:46;;;;;;;1.50;0.50;;;;;;;6.78;100.00;97407.72;15277939;19;20355;-52
2023/03/26 00:10:14;;;;;;;1.13;0.47;;;;;;;6.75;100.00;97413.41;15276083;19;20082;-50
2023/03/26 00:15:43;;;;;;;1.08;0.50;;;;;;;6.74;100.00;97412.56;15276314;19;20090;-50
2023/03/26 00:21:09;;;;;;;1.48;0.60;;;;;;;6.75;100.00;97421.44;15273049;19;20010;-50
2023/03/26 00:26:34;;;;;;;1.38;0.60;;;;;;;6.84;100.00;97411.59;15274485;19;20473;-50
2023/03/26 00:32:02;;;;;;;1.77;0.60;;;;;;;6.84;100.00;97419.63;15274093;19;20069;-49
2023/03/26 00:37:26;;;;;;;1.85;0.45;;;;;;;6.85;100.00;97407.91;15274412;19;20014;-51
2023/03/26 00:42:51;;;;;;;1.65;0.60;;;;;;;6.90;100.00;97411.78;15272245;19;20031;-50
2023/03/26 00:48:18;;;;;;;2.95;0.70;;;;;;;6.90;100.00;97397.53;15276690;19;20010;-49
2023/03/26 00:54:07;;;;;;;1.27;0.40;;;;;;;6.92;100.00;97398.22;15270176;19;20022;-50
2023/03/26 00:59:34;;;;;;;1.52;0.60;;;;;;;6.84;100.00;97404.38;15270918;19;20018;-49
2023/03/26 01:05:05;;;;;;;2.60;0.57;;;;;;;6.79;100.00;97396.84;15274251;19;20020;-48
2023/03/26 01:10:37;;;;;;;2.10;0.68;;;;;;;6.83;100.00;97405.38;15271677;19;20014;-50
2023/03/26 01:16:01;;;;;;;1.27;0.60;;;;;;;6.76;100.00;97404.38;15273363;19;20027;-51
2023/03/26 01:21:33;;;;;;;1.95;0.70;;;;;;;6.73;100.00;97405.53;15269321;19;20738;-50
2023/03/26 01:27:17;;;;;;;2.85;0.80;;;;;;;6.70;100.00;97410.38;15267533;19;20052;-50
2023/03/26 01:33:00;;;;;;;2.15;0.82;;;;;;;6.70;100.00;97405.84;15267649;19;20081;-48
2023/03/26 01:38:34;;;;;;;3.85;1.00;;;;;;;6.68;100.00;97402.50;15271817;19;20010;-48
2023/03/26 01:44:08;;;;;;;1.63;0.70;;;;;;;6.68;100.00;97399.81;15272624;19;20019;-48
2023/03/26 01:49:35;;;;;;;3.50;1.00;;;;;;;6.69;100.00;97393.47;15268770;19;20411;-48
2023/03/26 01:55:01;;;;;;;1.95;0.73;;;;;;;6.66;100.00;97383.09;15269058;19;20066;-49
2023/03/26 02:00:36;;;;;;;2.53;0.57;;;;;;;6.61;100.00;97380.91;15269898;19;20010;-48
2023/03/26 02:06:10;;;;;;;2.13;0.63;;;;;;;6.55;100.00;97370.84;15268104;19;20085;-48
2023/03/26 02:11:35;;;;;;;3.05;0.77;;;;;;;6.53;100.00;97380.03;15282244;19;20014;-49
2023/03/26 02:17:03;;;;;;;1.65;0.63;;;;;;;6.52;100.00;97387.22;15286375;19;20014;-50
2023/03/26 02:22:28;;;;;;;2.80;0.70;;;;;;;6.49;100.00;97382.19;15284721;19;20078;-49
2023/03/26 02:27:54;;;;;;;3.30;0.77;;;;;;;6.53;100.00;97377.34;15281847;19;20086;-48
2023/03/26 02:33:22;;;;;;;2.95;0.70;;;;;;;6.56;100.00;97383.22;15278318;19;20050;-48
2023/03/26 02:38:47;;;;;;;1.88;0.80;;;;;;;6.57;100.00;97384.91;15283107;19;20026;-48
2023/03/26 02:44:15;;;;;;;2.75;0.60;;;;;;;6.60;100.00;97383.75;15282189;19;20096;-47
2023/03/26 02:49:46;;;;;;;3.30;0.95;;;;;;;6.56;100.00;97379.69;15279415;19;20067;-50
2023/03/26 02:55:29;;;;;;;2.35;0.85;;;;;;;6.53;100.00;97377.34;15284820;19;20473;-53
2023/03/26 03:00:56;;;;;;;2.60;0.93;;;;;;;6.54;100.00;97384.38;15277876;19;20043;-49
2023/03/26 03:06:32;;;;;;;3.00;0.80;;;;;;;6.56;100.00;97374.34;15279850;19;20019;-51
2023/03/26 03:11:57;;;;;;;1.92;0.85;;;;;;;6.55;100.00;97376.19;15281670;19;20035;-48
2023/03/26 03:17:22;;;;;;;2.60;0.90;;;;;;;6.60;100.00;97371.19;15280443;19;20025;-51
2023/03/26 03:22:50;;;;;;;2.60;0.98;;;;;;;6.59;100.00;97368.69;15276092;19;20086;-49
2023/03/26 03:28:17;;;;;;;3.22;1.00;;;;;;;6.62;100.00;97368.38;15281070;19;20030;-48
2023/03/26 03:33:43;;;;;;;2.80;0.88;;;;;;;6.64;100.00;97369.03;15272229;19;20025;-48
2023/03/26 03:39:11;;;;;;;4.45;1.02;;;;;;;6.68;100.00;97367.69;15276921;19;20916;-50
2023/03/26 03:44:36;;;;;;;4.10;0.90;;;;;;;6.71;100.00;97359.34;15279716;19;20033;-50
2023/03/26 03:50:20;;;;;;;3.60;1.10;;;;;;;6.70;100.00;97368.38;15278023;19;20011;-49
2023/03/26 03:56:12;;;;;;;3.47;0.90;;;;;;;6.72;100.00;97366.38;15276513;19;20344;-48
2023/03/26 04:02:03;;;;;;;3.03;1.00;;;;;;;6.70;100.00;97370.25;14767057;19;10000618;-51
2023/03/26 04:07:35;;;;;;;2.80;1.00;;;;;;;6.67;100.00;97363.34;15274273;19;20799;-48
2023/03/26 04:13:23;;;;;;;2.53;0.90;;;;;;;6.66;100.00;97358.16;15271398;19;20016;-48
2023/03/26 04:19:02;;;;;;;3.90;1.02;;;;;;;6.75;100.00;97355.38;15276259;19;20471;-50
2023/03/26 04:24:26;;;;;;;4.80;1.08;;;;;;;6.76;100.00;97354.34;15276899;19;20022;-49
2023/03/26 04:29:57;;;;;;;3.65;1.02;;;;;;;6.79;100.00;97350.50;15271998;19;20018;-49
2023/03/26 04:35:23;;;;;;;4.50;1.00;;;;;;;6.88;100.00;97346.03;15265768;19;20383;-49
2023/03/26 04:40:50;;;;;;;3.13;0.88;;;;;;;6.90;100.00;97349.34;15260785;19;20045;-49
2023/03/26 04:46:32;;;;;;;2.42;0.88;;;;;;;6.91;100.00;97349.19;15265570;19;20043;-51
2023/03/26 04:52:03;;;;;;;3.65;0.90;;;;;;;6.93;100.00;97351.69;15263098;19;20021;-51
2023/03/26 04:57:52;;;;;;;2.55;0.90;;;;;;;6.97;100.00;97345.03;15265621;19;20389;-49
2023/03/26 05:03:40;;;;;;;4.38;1.15;;;;;;;6.93;100.00;97347.22;15264962;19;20010;-50
2023/03/26 05:09:06;;;;;;;4.35;1.05;;;;;;;6.98;100.00;97352.06;15291641;19;20014;-55
2023/03/26 05:14:50;;;;;;;4.95;1.10;;;;;;;7.00;100.00;97355.38;15279432;19;20051;-52
2023/03/26 05:20:56;;;;;;;5.10;1.17;;;;;;;6.98;100.00;97354.75;15259983;19;20010;-54
2023/03/26 05:26:22;;;;;;;4.30;1.17;;;;;;;6.99;100.00;97351.06;15259766;19;20035;-56
2023/03/26 05:31:47;;;;;;;3.72;1.10;;;;;;;6.98;100.00;97340.50;15262491;19;20018;-53
2023/03/26 05:37:16;;;;;;;3.00;1.10;;;;;;;7.01;100.00;97327.59;15258502;19;20026;-52
2023/03/26 05:42:50;;;;;;;3.30;1.23;;;;;;;7.03;100.00;97328.28;15253265;19;20029;-51
2023/03/26 05:48:17;;;;;;;4.22;1.30;;;;;;;7.01;100.00;97322.25;15275716;19;20052;-55
2023/03/26 05:53:51;;;;;;;5.15;1.10;;;;;;;7.04;100.00;97305.03;15269693;19;20030;-48
2023/03/26 05:59:35;;;;;;;;;;;;;;;7.04;100.00;97305.03;15276467;19;20014;-48
2023/03/26 06:05:31;;;;;;;3.33;0.90;;;;;;;7.09;100.00;97298.19;15277187;19;19927;-53
2023/03/26 06:11:07;;;;;;;3.38;0.90;;;;;;;7.16;100.00;97292.13;15273469;19;20357;-48
2023/03/26 06:16:31;;;;;;;5.22;1.27;;;;;;;7.29;100.00;97280.94;15270139;19;20020;-49
2023/03/26 06:22:04;;;;;;;6.10;1.23;;;;;;;7.31;100.00;97290.47;15269351;19;20038;-54
2023/03/26 06:27:54;;;;;;;4.30;1.20;;;;;;;7.44;100.00;97294.47;15271841;19;20022;-52
2023/03/26 06:33:48;;;;;;;4.05;1.23;;;;;;;7.46;100.00;97295.16;15266103;19;20027;-50
2023/03/26 06:39:14;;;;;;;3.92;1.40;;;;;;;7.51;100.00;97287.44;15271552;19;20026;-48
2023/03/26 06:45:03;;;;;;;4.78;1.58;;;;;;;7.56;100.00;97282.41;15272734;19;20022;-51
2023/03/26 06:51:14;;;;;;;6.63;2.05;;;;;;;7.58;100.00;97275.03;15263820;19;20098;-50
2023/03/26 06:56:51;;;;;;;6.15;2.25;;;;;;;7.62;100.00;97275.53;15272756;19;20018;-48
2023/03/26 07:02:38;;;;;;;5.63;2.40;;;;;;;7.75;100.00;97281.19;15269183;19;20399;-55
2023/03/26 07:08:20;;;;;;;5.63;2.05;;;;;;;7.76;100.00;97276.66;15269530;19;20026;-48
2023/03/26 07:14:04;;;;;;;6.32;1.95;;;;;;;7.82;100.00;97273.31;15268362;19;20015;-53
2023/03/26 07:19:51;;;;;;;5.72;1.73;;;;;;;7.90;100.00;97262.53;15259387;19;20029;-46
2023/03/26 07:25:19;;;;;;;7.35;1.58;;;;;;;8.08;100.00;97258.78;15271767;19;20093;-48
2023/03/26 07:31:00;;;;;;;4.45;1.30;;;;;;;8.18;100.00;97248.66;15267547;19;20022;-51
2023/03/26 07:37:00;;;;;;;7.05;1.60;;;;;;;8.20;100.00;97241.28;15264859;19;20018;-53
2023/03/26 07:43:03;;;;;;;6.07;1.60;;;;;;;8.29;100.00;97223.31;15268326;19;20116;-55
2023/03/26 07:48:50;;;;;;;4.32;1.30;;;;;;;8.48;100.00;97222.03;15270123;19;20462;-47
2023/03/26 07:54:32;;;;;;;4.07;1.30;;;;;;;8.62;100.00;97223.97;15261296;19;20014;-51
2023/03/26 08:00:20;;;;;;;6.60;1.42;;;;;;;8.63;100.00;97217.59;15276863;19;20018;-53
2023/03/26 08:05:51;;;;;;;;;;;;;;;8.58;100.00;97198.47;15267380;19;20022;-49
2023/03/26 08:11:42;;;;;;;6.28;1.50;;;;;;;8.76;100.00;97205.41;15267223;19;19927;-54
2023/03/26 08:17:15;;;;;;;5.78;1.52;;;;;;;8.84;100.00;97189.22;15268523;19;20029;-52
2023/03/26 08:22:44;;;;;;;5.80;1.58;;;;;;;8.97;100.00;97175.19;15262954;19;20531;-54
2023/03/26 08:28:18;;;;;;;4.55;1.33;;;;;;;9.20;100.00;97177.81;15267809;19;20073;-50
2023/03/26 08:33:43;;;;;;;2.72;1.02;;;;;;;9.32;100.00;97166.63;15266336;19;20032;-53
2023/03/26 08:39:09;;;;;;;3.25;1.20;;;;;;;9.30;100.00;97158.72;15266650;19;20470;-51
2023/03/26 08:45:04;;;;;;;4.55;1.40;;;;;;;9.34;100.00;97159.22;15270826;19;20524;-53
2023/03/26 08:51:11;;;;;;;6.43;1.48;;;;;;;9.45;100.00;97155.22;15264481;19;20028;-57
2023/03/26 08:56:47;;;;;;;5.60;1.38;;;;;;;9.64;100.00;97149.25;15260973;19;20020;-51
2023/03/26 09:03:03;;;;;;;3.47;1.30;;;;;;;9.68;100.00;97145.19;15264123;19;20082;-54
2023/03/26 09:08:57;;;;;;;14.65;1.50;;;;;;;9.83;100.00;97147.84;15263553;19;20023;-53
2023/03/26 09:14:57;;;;;;;5.13;1.38;;;;;;;9.90;100.00;97139.03;15263015;19;20029;-51
2023/03/26 09:20:47;;;;;;;4.88;1.30;;;;;;;9.96;100.00;97131.06;15264993;19;21315;-50
2023/03/26 09:26:36;;;;;;;4.63;1.20;;;;;;;10.16;100.00;97117.81;15264331;19;20050;-50
2023/03/26 09:32:37;;;;;;;3.30;1.30;;;;;;;10.15;100.00;97104.53;15260102;19;20018;-50
2023/03/26 09:38:09;;;;;;;6.20;1.30;;;;;;;10.16;100.00;97100.84;15263230;19;20757;-52
2023/03/26 09:43:53;;;;;;;5.40;1.40;;;;;;;9.99;100.00;97098.41;15258813;19;20038;-49
2023/03/26 09:49:32;;;;;;;4.22;1.20;;;;;;;9.94;100.00;97091.88;15261438;19;20402;-51
2023/03/26 09:55:15;;;;;;;5.05;1.30;;;;;;;9.86;100.00;97092.88;15260581;19;20031;-50
2023/03/26 10:00:49;;;;;;;4.57;1.38;;;;;;;9.85;100.00;97088.50;15250469;19;20015;-47
2023/03/26 10:06:35;;;;;;;4.40;1.40;;;;;;;9.98;100.00;97082.44;15262944;19;20029;-51
2023/03/26 10:12:19;;;;;;;5.93;1.42;;;;;;;10.08;100.00;97076.75;15258418;19;20080;-51
2023/03/26 10:17:54;;;;;;;3.90;1.00;;;;;;;10.36;100.00;97065.19;15261895;19;20022;-48
2023/03/26 10:24:11;;;;;;;4.40;1.20;;;;;;;10.42;100.00;97054.50;15263981;19;20010;-48
2023/03/26 10:30:02;;;;;;;3.88;1.17;;;;;;;10.54;100.00;97048.59;15268965;19;20045;-55
2023/03/26 10:35:42;;;;;;;5.63;1.45;;;;;;;10.67;100.00;97048.69;15265681;19;20037;-56
2023/03/26 10:41:19;;;;;;;3.50;1.25;;;;;;;10.64;100.00;97035.66;15274242;19;20022;-52
2023/03/26 10:47:02;;;;;;;5.32;1.50;;;;;;;10.72;100.00;97035.50;15272101;19;20022;-49
2023/03/26 10:52:38;;;;;;;5.18;1.50;;;;;;;10.64;100.00;97038.34;15273247;19;20011;-54
2023/03/26 10:58:14;;;;;;;4.95;1.48;;;;;;;10.53;100.00;97031.63;15268366;19;20022;-48
2023/03/26 11:03:54;;;;;;;4.85;1.60;;;;;;;10.61;100.00;97039.56;15268658;19;20081;-48
2023/03/26 11:09:31;;;;;;;5.45;1.30;;;;;;;10.57;100.00;97045.53;15270546;19;20077;-51
2023/03/26 11:15:03;;;;;;;2.75;1.20;;;;;;;10.52;100.00;97039.91;15269639;19;21021;-49
2023/03/26 11:20:37;;;;;;;4.45;1.35;;;;;;;10.40;100.00;97026.97;15270082;19;20089;-49
2023/03/26 11:26:17;;;;;;;5.40;1.33;;;;;;;10.26;100.00;97036.75;15276662;19;20488;-53
2023/03/26 11:32:03;;;;;;;4.00;1.30;;;;;;;10.07;100.00;97037.41;15269800;19;20015;-48
2023/03/26 11:37:39;;;;;;;4.72;1.20;;;;;;;9.99;100.00;97041.06;15264862;19;20510;-52
2023/03/26 11:43:07;;;;;;;3.20;1.55;;;;;;;9.95;100.00;97050.53;15266072;19;20019;-51
2023/03/26 11:48:40;;;;;;;3.53;1.05;;;;;;;9.76;100.00;97041.25;15272217;19;20014;-52
2023/03/26 11:54:14;;;;;;;3.15;1.00;;;;;;;9.55;100.00;97043.69;15268572;19;20082;-50
2023/03/26 11:59:49;;;;;;;3.60;1.13;;;;;;;9.48;100.00;97053.53;15267054;19;20503;-51
2023/03/26 12:05:30;;;;;;;3.22;1.20;;;;;;;9.28;100.00;97055.13;15270349;19;20724;-51
2023/03/26 12:11:04;;;;;;;6.07;1.40;;;;;;;9.28;100.00;97055.13;15263441;19;20538;-51
2023/03/26 12:16:30;;;;;;;6.15;1.60;;;;;;;9.25;100.00;97050.97;15266848;19;20495;-49
2023/03/26 12:21:57;;;;;;;5.65;1.75;;;;;;;9.12;100.00;97046.25;15269912;19;20018;-53
2023/03/26 12:27:33;;;;;;;4.50;1.42;;;;;;;9.04;100.00;97054.41;15274342;19;20036;-52
2023/03/26 12:33:02;;;;;;;4.55;1.48;;;;;;;9.03;100.00;97047.34;15273386;19;20474;-52
2023/03/26 12:38:41;;;;;;;5.75;1.50;;;;;;;8.97;100.00;97051.63;15274497;19;20025;-52
2023/03/26 12:44:31;;;;;;;5.45;1.60;;;;;;;8.86;100.00;97052.06;15261639;19;20019;-51
2023/03/26 12:50:15;;;;;;;5.43;1.45;;;;;;;8.77;100.00;97054.84;15261447;19;21402;-52
2023/03/26 12:56:02;;;;;;;5.85;1.50;;;;;;;8.73;100.00;97058.09;15258318;19;20747;-48
2023/03/26 13:01:38;;;;;;;4.85;1.40;;;;;;;8.53;100.00;97053.22;15265901;19;20019;-52
2023/03/26 13:07:12;;;;;;;3.17;1.10;;;;;;;8.45;100.00;97047.91;15259409;19;20363;-47
2023/03/26 13:12:47;;;;;;;4.22;1.30;;;;;;;8.34;100.00;97046.53;15261977;19;20026;-50
2023/03/26 13:18:26;;;;;;;5.32;1.30;;;;;;;8.15;100.00;97034.44;15265368;19;20074;-47
2023/03/26 13:23:59;;;;;;;2.53;0.85;;;;;;;7.98;100.00;97025.69;15266408;19;20014;-48
2023/03/26 13:29:38;;;;;;;2.08;0.90;;;;;;;8.09;100.00;97017.22;15260294;19;20022;-50
2023/03/26 13:35:19;;;;;;;4.25;1.20;;;;;;;8.05;100.00;97017.75;15264268;19;20033;-48
2023/03/26 13:40:54;;;;;;;3.05;1.00;;;;;;;7.99;100.00;97017.44;15268272;19;20025;-49
2023/03/26 13:46:33;;;;;;;1.85;0.80;;;;;;;7.88;100.00;97023.22;15257401;19;20021;-48
2023/03/26 13:52:09;;;;;;;2.42;0.80;;;;;;;7.71;100.00;97006.44;15259967;19;20025;-49
2023/03/26 13:57:38;;;;;;;1.42;0.65;;;;;;;7.65;100.00;96999.94;15260300;19;20022;-50
2023/03/26 14:03:10;;;;;;;1.75;0.70;;;;;;;7.69;100.00;96998.56;15260603;19;20025;-53
2023/03/26 14:08:41;;;;;;;1.35;0.60;;;;;;;7.67;100.00;97003.28;15269484;19;20042;-47
2023/03/26 14:14:12;;;;;;;2.10;0.70;;;;;;;7.69;100.00;97001.25;15273378;19;20014;-49
2023/03/26 14:20:05;;;;;;;1.13;0.50;;;;;;;7.54;100.00;96995.81;15269123;19;20021;-52
2023/03/26 14:25:41;;;;;;;1.38;0.47;;;;;;;7.49;100.00;96990.16;15271050;19;20028;-50
2023/03/26 14:31:22;;;;;;;0.38;0.30;;;;;;;7.42;100.00;96980.31;15273060;19;20252;-47
2023/03/26 14:37:17;;;;;;;1.03;0.50;;;;;;;7.43;100.00;96979.31;15269208;19;20093;-50
2023/03/26 14:42:55;;;;;;;0.75;0.47;;;;;;;7.43;100.00;96976.63;15267901;19;20029;-49
2023/03/26 14:49:13;;;;;;;0.90;0.40;;;;;;;7.43;100.00;96966.72;15273122;19;20043;-52
2023/03/26 14:54:51;;;;;;;0.40;0.30;;;;;;;7.51;100.00;96960.50;15263841;19;20098;-52
2023/03/26 15:00:58;;;;;;;0.60;0.45;;;;;;;7.45;100.00;96961.22;15269095;19;20023;-51
2023/03/26 15:06:48;;;;;;;0.80;0.60;;;;;;;7.49;100.00;96946.44;15267980;19;20015;-51
2023/03/26 15:12:38;;;;;;;1.10;0.80;;;;;;;7.52;100.00;96943.41;15267534;19;20018;-51
2023/03/26 15:18:30;;;;;;;1.08;0.80;;;;;;;7.58;100.00;96934.66;15269634;19;20022;-50
2023/03/26 15:24:21;;;;;;;0.87;0.63;;;;;;;7.65;100.00;96938.28;15268541;19;20113;-52
2023/03/26 15:30:00;;;;;;;;;;;;;;;7.70;100.00;96938.56;15269673;19;20029;-49
2023/03/26 15:36:04;;;;;;;0.80;0.40;;;;;;;7.76;100.00;96933.50;15270167;19;19927;-51
2023/03/26 15:41:36;;;;;;;1.67;0.40;;;;;;;7.79;100.00;96930.47;15271430;19;20074;-48
2023/03/26 15:47:27;;;;;;;0.83;0.50;;;;;;;7.78;100.00;96915.41;15261356;19;20014;-52
2023/03/26 15:53:01;;;;;;;;;;;;;;;7.71;100.00;96917.97;15258971;19;20013;-55
2023/03/26 15:58:30;;;;;;;1.48;0.40;;;;;;;7.76;100.00;96912.06;15258439;19;20337;-51
2023/03/26 16:04:13;;;;;;;0.70;0.30;;;;;;;7.82;100.00;96900.63;15261564;19;20039;-51
2023/03/26 16:09:58;;;;;;;0.40;0.40;;;;;;;7.89;100.00;96901.56;15290318;19;20022;-51
2023/03/26 16:15:38;;;;;;;0.68;0.43;;;;;;;7.95;100.00;96914.22;15267033;19;20018;-50
2023/03/26 16:21:47;;;;;;;1.00;0.50;;;;;;;8.09;100.00;96919.81;15266798;19;20331;-48
2023/03/26 16:27:29;;;;;;;0.80;0.60;;;;;;;8.13;100.00;96899.66;15256942;19;20529;-54
2023/03/26 16:32:58;;;;;;;1.25;0.60;;;;;;;8.23;100.00;96899.41;15265615;19;20014;-50
2023/03/26 16:38:27;;;;;;;0.57;0.40;;;;;;;8.28;100.00;96897.84;15260723;19;20042;-52
2023/03/26 16:44:12;;;;;;;0.45;0.35;;;;;;;8.29;100.00;96893.28;15269540;19;20023;-50
2023/03/26 16:49:56;;;;;;;1.08;0.50;;;;;;;8.28;100.00;96900.50;15269071;19;20014;-51
2023/03/26 16:55:49;;;;;;;0.85;0.70;;;;;;;8.27;100.00;96904.22;15263431;19;20471;-48
2023/03/26 17:01:26;;;;;;;0.93;0.80;;;;;;;8.25;100.00;96895.50;15257058;19;20017;-48
2023/03/26 17:07:04;;;;;;;2.47;1.00;;;;;;;8.23;100.00;96902.91;15263624;19;20019;-51
2023/03/26 17:12:41;;;;;;;0.80;0.70;;;;;;;8.21;100.00;96904.09;15263262;19;20652;-48
2023/03/26 17:18:25;;;;;;;1.17;0.80;;;;;;;8.13;100.00;96907.69;15266613;19;20021;-49
2023/03/26 17:24:05;;;;;;;1.30;0.88;;;;;;;8.03;100.00;96926.72;15263363;19;20573;-48
2023/03/26 17:30:10;;;;;;;1.08;0.80;;;;;;;7.93;100.00;96929.69;15259660;19;20045;-53
2023/03/26 17:35:41;;;;;;;3.20;1.00;;;;;;;7.91;100.00;96934.41;15251747;19;20017;-54
2023/03/26 17:41:08;;;;;;;1.48;1.00;;;;;;;7.84;100.00;96925.38;15276487;19;20028;-47
2023/03/26 17:46:40;;;;;;;1.08;0.85;;;;;;;7.72;100.00;96923.13;15275583;19;20399;-47
2023/03/26 17:52:24;;;;;;;1.20;1.10;;;;;;;7.69;100.00;96928.88;15274697;19;20021;-49
2023/03/26 17:57:53;;;;;;;1.52;0.90;;;;;;;7.67;100.00;96930.91;15269414;19;20736;-49
2023/03/26 18:03:26;;;;;;;2.13;1.00;;;;;;;7.64;100.00;96936.63;15268521;19;20029;-54
2023/03/26 18:09:12;;;;;;;1.00;0.90;;;;;;;7.64;100.00;96941.97;15274560;19;20019;-52
2023/03/26 18:14:58;;;;;;;1.63;0.98;;;;;;;7.63;100.00;96947.53;15274329;19;20020;-48
2023/03/26 18:20:35;;;;;;;1.73;1.02;;;;;;;7.59;100.00;96955.06;15272139;19;20011;-51
2023/03/26 18:26:12;;;;;;;2.28;1.10;;;;;;;7.54;100.00;96952.09;15277055;19;20779;-53
2023/03/26 18:31:39;;;;;;;3.00;2.50;;;;;;;7.45;100.00;96947.81;15274537;19;20020;-50
2023/03/26 18:37:26;;;;;;;2.03;1.80;;;;;;;7.39;100.00;96958.22;15267363;19;20014;-51
2023/03/26 18:42:54;;;;;;;2.15;1.60;;;;;;;7.37;100.00;96956.75;15273025;19;20047;-52
2023/03/26 18:48:23;;;;;;;2.60;1.67;;;;;;;7.35;100.00;96961.44;15271275;19;20614;-52
2023/03/26 18:53:58;;;;;;;2.35;1.50;;;;;;;7.39;100.00;96973.47;15265031;19;20019;-52
2023/03/26 18:59:30;;;;;;;2.40;1.60;;;;;;;7.33;100.00;96974.16;15271944;19;20018;-53
2023/03/26 19:04:59;;;;;;;4.57;1.38;;;;;;;7.39;100.00;96985.00;15277337;19;20759;-55
2023/03/26 19:10:27;;;;;;;1.85;1.30;;;;;;;7.36;100.00;96966.59;15273357;19;20035;-52
2023/03/26 19:15:53;;;;;;;1.40;1.20;;;;;;;7.36;100.00;96971.97;15278592;19;20759;-53
2023/03/26 19:21:22;;;;;;;2.60;1.50;;;;;;;7.31;100.00;96970.81;15278298;19;20090;-48
2023/03/26 19:26:49;;;;;;;3.33;1.65;;;;;;;7.27;100.00;96978.38;15275137;19;20172;-49
2023/03/26 19:32:20;;;;;;;3.25;1.80;;;;;;;7.19;100.00;96979.25;15278516;19;20032;-51
2023/03/26 19:37:58;;;;;;;2.80;1.70;;;;;;;7.18;100.00;96974.09;15276200;19;20356;-49
2023/03/26 19:43:26;;;;;;;1.50;1.38;;;;;;;7.13;100.00;96968.41;15269733;19;20367;-53
2023/03/26 19:48:54;;;;;;;2.33;1.42;;;;;;;7.00;100.00;96974.34;15279449;19;20014;-52
2023/03/26 19:54:25;;;;;;;1.95;1.85;;;;;;;6.95;100.00;96974.88;15278206;19;20018;-52
2023/03/26 19:59:54;;;;;;;1.87;1.77;;;;;;;6.89;100.00;96973.72;15278145;19;20017;-51
2023/03/26 20:05:27;;;;;;;2.42;2.10;;;;;;;6.81;100.00;96972.91;15277736;19;20021;-50
2023/03/26 20:10:53;;;;;;;2.55;2.30;;;;;;;6.76;100.00;96971.59;15273445;19;20077;-49
2023/03/26 20:16:26;;;;;;;3.30;3.00;;;;;;;6.68;100.00;96963.59;15248894;19;20011;-51
2023/03/26 20:21:51;;;;;;;3.00;2.70;;;;;;;6.56;100.00;96964.97;15271783;19;20014;-53
2023/03/26 20:27:18;;;;;;;5.30;3.40;;;;;;;6.52;100.00;96971.69;15277439;19;20344;-49
2023/03/26 20:32:45;;;;;;;3.05;2.47;;;;;;;6.46;100.00;96973.22;15277196;19;20039;-50
2023/03/26 20:38:31;;;;;;;1.88;1.63;;;;;;;6.30;100.00;96976.72;15272731;19;20361;-48
2023/03/26 20:43:57;;;;;;;1.40;1.30;;;;;;;6.41;100.00;96989.75;15277627;19;20031;-50
2023/03/26 20:49:24;;;;;;;1.63;1.10;;;;;;;6.44;100.00;96976.03;15270677;19;20018;-51
2023/03/26 20:54:57;;;;;;;2.63;1.10;;;;;;;6.39;100.00;96974.88;15272380;19;20016;-51
2023/03/26 21:00:23;;;;;;;3.83;3.40;;;;;;;6.37;100.00;96979.56;15274865;19;20244;-50
2023/03/26 21:05:51;;;;;;;3.95;3.53;;;;;;;6.26;100.00;96980.75;15273319;19;20023;-52
2023/03/26 21:11:21;;;;;;;2.88;2.63;;;;;;;6.19;100.00;96966.38;15272130;19;20015;-49
2023/03/26 21:16:47;;;;;;;1.53;1.43;;;;;;;6.26;100.00;96976.22;15270904;19;20114;-54
2023/03/26 21:22:28;;;;;;;2.67;1.25;;;;;;;6.10;100.00;96986.97;15270835;19;20019;-46
2023/03/26 21:28:02;;;;;;;2.17;1.67;;;;;;;6.10;100.00;96998.47;15275079;19;20954;-45
2023/03/26 21:33:27;;;;;;;2.40;1.92;;;;;;;6.05;100.00;97006.19;15272356;19;20021;-46
2023/03/26 21:38:55;;;;;;;1.70;1.60;;;;;;;6.05;100.00;97016.88;15268345;19;20010;-51
2023/03/26 21:44:22;;;;;;;1.92;1.70;;;;;;;5.98;100.00;97013.16;15274549;19;20078;-49
2023/03/26 21:49:47;;;;;;;2.05;1.52;;;;;;;6.00;100.00;97013.88;15266747;19;20356;-49
2023/03/26 21:55:24;;;;;;;2.38;1.85;;;;;;;5.93;100.00;97023.53;15269500;19;20023;-51
2023/03/26 22:01:04;;;;;;;2.53;2.33;;;;;;;5.93;100.00;97028.88;15273788;19;20021;-49
2023/03/26 22:06:36;;;;;;;2.35;2.15;;;;;;;5.95;100.00;97040.22;15272566;19;20018;-48
2023/03/26 22:12:05;;;;;;;2.28;1.73;;;;;;;5.78;100.00;97037.53;15274886;19;20014;-49
2023/03/26 22:17:29;;;;;;;2.60;2.20;;;;;;;5.83;100.00;97058.44;15269128;19;20025;-48
2023/03/26 22:22:54;;;;;;;3.83;2.20;;;;;;;5.62;100.00;97058.88;15264889;19;20010;-47
2023/03/26 22:28:22;;;;;;;3.88;2.10;;;;;;;5.40;100.00;97059.34;15289124;19;20053;-49
2023/03/26 22:33:47;;;;;;;4.35;2.20;;;;;;;5.20;100.00;97065.91;15289929;19;20085;-48
2023/03/26 22:39:12;;;;;;;4.53;2.60;;;;;;;5.26;100.00;97092.00;15281945;19;20098;-49
2023/03/26 22:44:40;;;;;;;4.88;2.50;;;;;;;5.03;100.00;97089.03;15286214;19;20458;-45
2023/03/26 22:50:06;;;;;;;6.22;2.30;;;;;;;4.93;100.00;97094.50;15284312;19;20029;-48
2023/03/26 22:55:37;;;;;;;5.95;2.00;;;;;;;4.79;100.00;97095.91;15277647;19;20364;-49
2023/03/26 23:01:09;;;;;;;7.97;2.30;;;;;;;4.56;100.00;97117.78;15284044;19;20022;-51
2023/03/26 23:06:34;;;;;;;5.72;2.70;;;;;;;4.56;100.00;97112.44;15284742;19;20074;-47
2023/03/26 23:12:00;;;;;;;6.25;2.47;;;;;;;4.50;100.00;97123.75;15283093;19;20031;-48
2023/03/26 23:17:27;;;;;;;10.43;3.25;;;;;;;4.42;100.00;97143.19;15283783;19;20942;-50
2023/03/26 23:22:53;;;;;;;8.32;2.47;;;;;;;4.25;100.00;97158.19;15310433;19;20028;-50
2023/03/26 23:28:17;;;;;;;7.38;2.40;;;;;;;4.30;100.00;97160.41;15278366;19;20049;-51
2023/03/26 23:33:49;;;;;;;8.48;2.67;;;;;;;4.16;100.00;97180.44;15283597;19;20018;-51
2023/03/26 23:39:13;;;;;;;7.38;2.60;;;;;;;4.08;100.00;97186.53;15279826;19;20025;-47
2023/03/26 23:44:38;;;;;;;7.28;2.40;;;;;;;4.03;100.00;97195.97;15283141;19;20022;-49
2023/03/26 23:50:05;;;;;;;7.20;2.55;;;;;;;3.94;100.00;97217.16;15279247;19;20086;-50
2023/03/26 23:55:37;;;;;;;11.07;2.90;;;;;;;3.87;100.00;97213.44;15279774;19;20022;-48
